sensor_id;sensor_type;location;lat;lon;timestamp;P1;durP1;ratioP1;P2;durP2;ratioP2
9815;SDS011;4947;44.526;11.360;2022-08-04T00:01:36;4.18;;;2.33;;
9815;SDS011;4947;44.526;11.360;2022-08-04T00:04:13;8.93;;;1.98;;
9815;SDS011;4947;44.526;11.360;2022-08-04T00:06:47;4.35;;;2.33;;
9815;SDS011;4947;44.526;11.360;2022-08-04T00:09:27;5.57;;;2.55;;
9815;SDS011;4947;44.526;11.360;2022-08-04T00:12:01;4.05;;;2.28;;
9815;SDS011;4947;44.526;11.360;2022-08-04T00:14:33;3.45;;;2.35;;
9815;SDS011;4947;44.526;11.360;2022-08-04T00:17:12;7.70;;;2.53;;
9815;SDS011;4947;44.526;11.360;2022-08-04T00:19:46;2.38;;;2.00;;
9815;SDS011;4947;44.526;11.360;2022-08-04T00:22:15;5.13;;;2.20;;
9815;SDS011;4947;44.526;11.360;2022-08-04T00:24:45;5.38;;;2.33;;
9815;SDS011;4947;44.526;11.360;2022-08-04T00:27:13;5.32;;;2.03;;
9815;SDS011;4947;44.526;11.360;2022-08-04T00:29:42;4.95;;;2.03;;
9815;SDS011;4947;44.526;11.360;2022-08-04T00:32:11;2.47;;;2.10;;
9815;SDS011;4947;44.526;11.360;2022-08-04T00:34:39;3.20;;;2.00;;
9815;SDS011;4947;44.526;11.360;2022-08-04T00:37:09;3.15;;;1.80;;
9815;SDS011;4947;44.526;11.360;2022-08-04T00:39:37;4.05;;;1.98;;
9815;SDS011;4947;44.526;11.360;2022-08-04T00:45:15;3.13;;;1.80;;
9815;SDS011;4947;44.526;11.360;2022-08-04T00:48:00;2.28;;;1.90;;
9815;SDS011;4947;44.526;11.360;2022-08-04T00:50:40;2.88;;;1.73;;
9815;SDS011;4947;44.526;11.360;2022-08-04T00:53:16;2.92;;;1.90;;
9815;SDS011;4947;44.526;11.360;2022-08-04T00:56:03;2.08;;;1.52;;
9815;SDS011;4947;44.526;11.360;2022-08-04T00:58:41;3.20;;;2.05;;
9815;SDS011;4947;44.526;11.360;2022-08-04T01:01:18;4.97;;;1.95;;
9815;SDS011;4947;44.526;11.360;2022-08-04T01:04:08;3.47;;;2.10;;
9815;SDS011;4947;44.526;11.360;2022-08-04T01:06:44;5.88;;;2.15;;
9815;SDS011;4947;44.526;11.360;2022-08-04T01:09:35;2.38;;;1.85;;
9815;SDS011;4947;44.526;11.360;2022-08-04T01:12:16;3.15;;;2.30;;
9815;SDS011;4947;44.526;11.360;2022-08-04T01:15:02;4.70;;;2.17;;
9815;SDS011;4947;44.526;11.360;2022-08-04T01:17:41;8.95;;;2.40;;
9815;SDS011;4947;44.526;11.360;2022-08-04T01:20:15;1.90;;;1.80;;
9815;SDS011;4947;44.526;11.360;2022-08-04T01:28:59;2.72;;;2.13;;
9815;SDS011;4947;44.526;11.360;2022-08-04T01:31:33;2.97;;;1.85;;
9815;SDS011;4947;44.526;11.360;2022-08-04T01:34:05;2.72;;;1.90;;
9815;SDS011;4947;44.526;11.360;2022-08-04T01:36:39;5.13;;;1.90;;
9815;SDS011;4947;44.526;11.360;2022-08-04T01:39:11;2.10;;;1.77;;
9815;SDS011;4947;44.526;11.360;2022-08-04T01:41:57;6.57;;;2.17;;
9815;SDS011;4947;44.526;11.360;2022-08-04T01:44:29;3.47;;;2.00;;
9815;SDS011;4947;44.526;11.360;2022-08-04T01:47:00;4.57;;;2.17;;
9815;SDS011;4947;44.526;11.360;2022-08-04T01:49:28;3.17;;;1.73;;
9815;SDS011;4947;44.526;11.360;2022-08-04T01:51:57;3.05;;;2.15;;
9815;SDS011;4947;44.526;11.360;2022-08-04T01:54:25;6.95;;;2.38;;
9815;SDS011;4947;44.526;11.360;2022-08-04T01:56:53;5.32;;;2.40;;
9815;SDS011;4947;44.526;11.360;2022-08-04T01:59:21;3.78;;;2.40;;
9815;SDS011;4947;44.526;11.360;2022-08-04T02:01:50;2.72;;;2.00;;
9815;SDS011;4947;44.526;11.360;2022-08-04T02:04:19;6.00;;;2.00;;
9815;SDS011;4947;44.526;11.360;2022-08-04T02:06:54;4.22;;;1.83;;
9815;SDS011;4947;44.526;11.360;2022-08-04T02:09:29;3.58;;;2.30;;
9815;SDS011;4947;44.526;11.360;2022-08-04T02:12:08;4.63;;;2.05;;
9815;SDS011;4947;44.526;11.360;2022-08-04T02:14:47;3.25;;;1.90;;
9815;SDS011;4947;44.526;11.360;2022-08-04T02:17:27;5.28;;;2.10;;
9815;SDS011;4947;44.526;11.360;2022-08-04T02:22:46;2.55;;;2.10;;
9815;SDS011;4947;44.526;11.360;2022-08-04T02:25:21;8.73;;;2.20;;
9815;SDS011;4947;44.526;11.360;2022-08-04T02:27:55;5.55;;;2.72;;
9815;SDS011;4947;44.526;11.360;2022-08-04T02:30:36;6.05;;;2.45;;
9815;SDS011;4947;44.526;11.360;2022-08-04T02:33:12;2.85;;;2.20;;
9815;SDS011;4947;44.526;11.360;2022-08-04T02:35:44;4.43;;;2.38;;
9815;SDS011;4947;44.526;11.360;2022-08-04T02:38:19;4.15;;;2.22;;
9815;SDS011;4947;44.526;11.360;2022-08-04T02:40:53;7.10;;;2.15;;
9815;SDS011;4947;44.526;11.360;2022-08-04T02:43:21;4.35;;;2.50;;
9815;SDS011;4947;44.526;11.360;2022-08-04T02:45:51;2.75;;;1.92;;
9815;SDS011;4947;44.526;11.360;2022-08-04T02:48:24;4.03;;;2.17;;
9815;SDS011;4947;44.526;11.360;2022-08-04T02:50:54;7.63;;;2.45;;
9815;SDS011;4947;44.526;11.360;2022-08-04T02:53:23;6.05;;;2.30;;
9815;SDS011;4947;44.526;11.360;2022-08-04T02:55:53;2.78;;;2.10;;
9815;SDS011;4947;44.526;11.360;2022-08-04T02:58:22;2.13;;;1.83;;
9815;SDS011;4947;44.526;11.360;2022-08-04T03:00:53;4.47;;;2.15;;
9815;SDS011;4947;44.526;11.360;2022-08-04T03:03:25;5.03;;;2.42;;
9815;SDS011;4947;44.526;11.360;2022-08-04T03:06:15;4.20;;;2.20;;
9815;SDS011;4947;44.526;11.360;2022-08-04T03:18:00;2.88;;;2.33;;
9815;SDS011;4947;44.526;11.360;2022-08-04T03:20:54;5.20;;;2.67;;
9815;SDS011;4947;44.526;11.360;2022-08-04T03:23:56;6.47;;;2.63;;
9815;SDS011;4947;44.526;11.360;2022-08-04T03:26:49;6.20;;;2.40;;
9815;SDS011;4947;44.526;11.360;2022-08-04T03:29:35;6.68;;;2.42;;
9815;SDS011;4947;44.526;11.360;2022-08-04T03:41:47;3.88;;;2.47;;
9815;SDS011;4947;44.526;11.360;2022-08-04T03:44:43;7.95;;;2.35;;
9815;SDS011;4947;44.526;11.360;2022-08-04T03:50:41;17.88;;;3.70;;
9815;SDS011;4947;44.526;11.360;2022-08-04T03:53:38;4.55;;;2.50;;
9815;SDS011;4947;44.526;11.360;2022-08-04T03:56:41;7.32;;;2.80;;
9815;SDS011;4947;44.526;11.360;2022-08-04T03:59:26;4.15;;;3.13;;
9815;SDS011;4947;44.526;11.360;2022-08-04T04:08:44;3.40;;;2.30;;
9815;SDS011;4947;44.526;11.360;2022-08-04T04:11:38;3.70;;;2.70;;
9815;SDS011;4947;44.526;11.360;2022-08-04T04:14:23;3.67;;;2.65;;
9815;SDS011;4947;44.526;11.360;2022-08-04T04:17:06;4.75;;;2.85;;
9815;SDS011;4947;44.526;11.360;2022-08-04T04:22:58;6.32;;;2.60;;
9815;SDS011;4947;44.526;11.360;2022-08-04T04:25:37;3.65;;;2.75;;
9815;SDS011;4947;44.526;11.360;2022-08-04T04:28:26;3.10;;;2.47;;
9815;SDS011;4947;44.526;11.360;2022-08-04T04:31:22;5.05;;;2.58;;
9815;SDS011;4947;44.526;11.360;2022-08-04T04:34:22;3.67;;;2.20;;
9815;SDS011;4947;44.526;11.360;2022-08-04T04:37:03;3.45;;;2.67;;
9815;SDS011;4947;44.526;11.360;2022-08-04T04:39:42;6.25;;;2.28;;
9815;SDS011;4947;44.526;11.360;2022-08-04T04:45:17;3.38;;;2.92;;
9815;SDS011;4947;44.526;11.360;2022-08-04T04:47:54;5.88;;;2.47;;
9815;SDS011;4947;44.526;11.360;2022-08-04T04:50:46;3.65;;;2.20;;
9815;SDS011;4947;44.526;11.360;2022-08-04T04:53:23;3.97;;;2.60;;
9815;SDS011;4947;44.526;11.360;2022-08-04T04:56:01;9.77;;;2.67;;
9815;SDS011;4947;44.526;11.360;2022-08-04T04:58:33;5.50;;;2.53;;
9815;SDS011;4947;44.526;11.360;2022-08-04T05:01:12;3.35;;;2.38;;
9815;SDS011;4947;44.526;11.360;2022-08-04T05:04:12;6.90;;;3.97;;
9815;SDS011;4947;44.526;11.360;2022-08-04T05:07:07;3.83;;;2.78;;
9815;SDS011;4947;44.526;11.360;2022-08-04T05:09:53;4.30;;;2.70;;
9815;SDS011;4947;44.526;11.360;2022-08-04T05:12:32;6.53;;;2.33;;
9815;SDS011;4947;44.526;11.360;2022-08-04T05:15:10;4.47;;;2.78;;
9815;SDS011;4947;44.526;11.360;2022-08-04T05:17:39;3.78;;;2.42;;
9815;SDS011;4947;44.526;11.360;2022-08-04T05:20:12;4.88;;;2.47;;
9815;SDS011;4947;44.526;11.360;2022-08-04T05:22:44;3.75;;;2.33;;
9815;SDS011;4947;44.526;11.360;2022-08-04T05:25:18;3.65;;;2.33;;
9815;SDS011;4947;44.526;11.360;2022-08-04T05:27:49;6.72;;;2.65;;
9815;SDS011;4947;44.526;11.360;2022-08-04T05:30:24;2.88;;;2.53;;
9815;SDS011;4947;44.526;11.360;2022-08-04T05:32:54;4.90;;;2.45;;
9815;SDS011;4947;44.526;11.360;2022-08-04T05:35:26;3.78;;;2.55;;
9815;SDS011;4947;44.526;11.360;2022-08-04T05:37:57;7.70;;;2.50;;
9815;SDS011;4947;44.526;11.360;2022-08-04T05:40:28;3.53;;;2.60;;
9815;SDS011;4947;44.526;11.360;2022-08-04T05:42:57;5.57;;;2.35;;
9815;SDS011;4947;44.526;11.360;2022-08-04T05:45:28;6.22;;;2.50;;
9815;SDS011;4947;44.526;11.360;2022-08-04T05:47:56;4.90;;;2.30;;
9815;SDS011;4947;44.526;11.360;2022-08-04T05:50:24;4.00;;;1.98;;
9815;SDS011;4947;44.526;11.360;2022-08-04T05:52:52;3.75;;;2.00;;
9815;SDS011;4947;44.526;11.360;2022-08-04T05:55:34;4.80;;;1.90;;
9815;SDS011;4947;44.526;11.360;2022-08-04T05:58:02;10.75;;;1.80;;
9815;SDS011;4947;44.526;11.360;2022-08-04T06:00:33;3.30;;;1.83;;
9815;SDS011;4947;44.526;11.360;2022-08-04T06:03:01;4.95;;;1.85;;
9815;SDS011;4947;44.526;11.360;2022-08-04T06:05:31;3.28;;;1.73;;
9815;SDS011;4947;44.526;11.360;2022-08-04T06:07:59;3.58;;;1.60;;
9815;SDS011;4947;44.526;11.360;2022-08-04T06:10:30;5.82;;;1.98;;
9815;SDS011;4947;44.526;11.360;2022-08-04T06:13:00;5.63;;;1.80;;
9815;SDS011;4947;44.526;11.360;2022-08-04T06:15:36;2.72;;;2.22;;
9815;SDS011;4947;44.526;11.360;2022-08-04T06:18:06;5.97;;;1.73;;
9815;SDS011;4947;44.526;11.360;2022-08-04T06:20:37;4.07;;;1.65;;
9815;SDS011;4947;44.526;11.360;2022-08-04T06:23:07;4.10;;;1.42;;
9815;SDS011;4947;44.526;11.360;2022-08-04T06:25:44;5.10;;;1.70;;
9815;SDS011;4947;44.526;11.360;2022-08-04T06:28:14;1.88;;;1.48;;
9815;SDS011;4947;44.526;11.360;2022-08-04T06:30:44;2.83;;;1.92;;
9815;SDS011;4947;44.526;11.360;2022-08-04T06:33:14;4.75;;;1.77;;
9815;SDS011;4947;44.526;11.360;2022-08-04T06:35:51;7.57;;;1.40;;
9815;SDS011;4947;44.526;11.360;2022-08-04T06:38:19;2.00;;;1.60;;
9815;SDS011;4947;44.526;11.360;2022-08-04T06:40:48;5.53;;;1.48;;
9815;SDS011;4947;44.526;11.360;2022-08-04T06:43:16;4.03;;;1.35;;
9815;SDS011;4947;44.526;11.360;2022-08-04T06:45:46;5.50;;;1.52;;
9815;SDS011;4947;44.526;11.360;2022-08-04T06:48:16;2.78;;;1.65;;
9815;SDS011;4947;44.526;11.360;2022-08-04T06:50:47;4.50;;;1.65;;
9815;SDS011;4947;44.526;11.360;2022-08-04T06:53:15;7.55;;;1.92;;
9815;SDS011;4947;44.526;11.360;2022-08-04T06:55:45;3.45;;;1.45;;
9815;SDS011;4947;44.526;11.360;2022-08-04T06:58:13;3.85;;;1.48;;
9815;SDS011;4947;44.526;11.360;2022-08-04T07:00:44;5.68;;;1.67;;
9815;SDS011;4947;44.526;11.360;2022-08-04T07:03:15;3.13;;;1.42;;
9815;SDS011;4947;44.526;11.360;2022-08-04T07:05:45;5.97;;;1.50;;
9815;SDS011;4947;44.526;11.360;2022-08-04T07:08:13;1.75;;;1.52;;
9815;SDS011;4947;44.526;11.360;2022-08-04T07:10:42;1.52;;;1.42;;
9815;SDS011;4947;44.526;11.360;2022-08-04T07:13:11;7.18;;;1.55;;
9815;SDS011;4947;44.526;11.360;2022-08-04T07:15:40;4.38;;;1.63;;
9815;SDS011;4947;44.526;11.360;2022-08-04T07:18:12;3.20;;;1.38;;
9815;SDS011;4947;44.526;11.360;2022-08-04T07:20:40;5.57;;;1.00;;
9815;SDS011;4947;44.526;11.360;2022-08-04T07:23:09;5.32;;;1.40;;
9815;SDS011;4947;44.526;11.360;2022-08-04T07:25:41;2.03;;;1.33;;
9815;SDS011;4947;44.526;11.360;2022-08-04T07:28:09;5.88;;;1.60;;
9815;SDS011;4947;44.526;11.360;2022-08-04T07:30:37;2.92;;;1.58;;
9815;SDS011;4947;44.526;11.360;2022-08-04T07:33:09;6.35;;;1.60;;
9815;SDS011;4947;44.526;11.360;2022-08-04T07:35:40;6.85;;;2.03;;
9815;SDS011;4947;44.526;11.360;2022-08-04T07:38:08;2.33;;;1.35;;
9815;SDS011;4947;44.526;11.360;2022-08-04T07:40:36;3.05;;;1.13;;
9815;SDS011;4947;44.526;11.360;2022-08-04T07:43:04;3.92;;;1.90;;
9815;SDS011;4947;44.526;11.360;2022-08-04T07:45:32;1.80;;;1.27;;
9815;SDS011;4947;44.526;11.360;2022-08-04T07:48:00;2.72;;;1.55;;
9815;SDS011;4947;44.526;11.360;2022-08-04T07:50:31;3.88;;;1.50;;
9815;SDS011;4947;44.526;11.360;2022-08-04T07:52:59;1.67;;;1.48;;
9815;SDS011;4947;44.526;11.360;2022-08-04T07:55:28;3.85;;;1.48;;
9815;SDS011;4947;44.526;11.360;2022-08-04T07:57:56;1.90;;;1.50;;
9815;SDS011;4947;44.526;11.360;2022-08-04T08:00:23;3.03;;;1.40;;
9815;SDS011;4947;44.526;11.360;2022-08-04T08:03:19;6.72;;;1.63;;
9815;SDS011;4947;44.526;11.360;2022-08-04T08:05:49;3.33;;;1.50;;
9815;SDS011;4947;44.526;11.360;2022-08-04T08:08:16;5.05;;;1.23;;
9815;SDS011;4947;44.526;11.360;2022-08-04T08:10:45;1.73;;;1.15;;
9815;SDS011;4947;44.526;11.360;2022-08-04T08:13:14;3.40;;;1.45;;
9815;SDS011;4947;44.526;11.360;2022-08-04T08:15:43;6.72;;;1.92;;
9815;SDS011;4947;44.526;11.360;2022-08-04T08:18:11;2.85;;;1.17;;
9815;SDS011;4947;44.526;11.360;2022-08-04T08:20:42;9.73;;;1.58;;
9815;SDS011;4947;44.526;11.360;2022-08-04T08:23:12;1.33;;;1.23;;
9815;SDS011;4947;44.526;11.360;2022-08-04T08:25:40;3.05;;;1.30;;
9815;SDS011;4947;44.526;11.360;2022-08-04T08:28:21;4.60;;;1.88;;
9815;SDS011;4947;44.526;11.360;2022-08-04T08:30:48;3.97;;;1.70;;
9815;SDS011;4947;44.526;11.360;2022-08-04T08:33:16;2.83;;;1.40;;
9815;SDS011;4947;44.526;11.360;2022-08-04T08:35:46;1.58;;;1.23;;
9815;SDS011;4947;44.526;11.360;2022-08-04T08:38:20;2.78;;;1.50;;
9815;SDS011;4947;44.526;11.360;2022-08-04T08:41:04;5.03;;;1.50;;
9815;SDS011;4947;44.526;11.360;2022-08-04T08:44:00;1.60;;;1.50;;
9815;SDS011;4947;44.526;11.360;2022-08-04T08:46:49;3.00;;;1.27;;
9815;SDS011;4947;44.526;11.360;2022-08-04T08:55:54;2.25;;;1.30;;
9815;SDS011;4947;44.526;11.360;2022-08-04T08:58:48;5.43;;;1.77;;
9815;SDS011;4947;44.526;11.360;2022-08-04T09:01:30;1.92;;;1.40;;
9815;SDS011;4947;44.526;11.360;2022-08-04T09:04:31;5.00;;;1.50;;
9815;SDS011;4947;44.526;11.360;2022-08-04T09:07:29;4.35;;;1.40;;
9815;SDS011;4947;44.526;11.360;2022-08-04T09:10:16;3.45;;;1.75;;
9815;SDS011;4947;44.526;11.360;2022-08-04T09:12:52;1.67;;;1.58;;
9815;SDS011;4947;44.526;11.360;2022-08-04T09:15:24;13.65;;;1.98;;
9815;SDS011;4947;44.526;11.360;2022-08-04T09:18:01;2.17;;;1.30;;
9815;SDS011;4947;44.526;11.360;2022-08-04T09:20:34;17.85;;;2.55;;
9815;SDS011;4947;44.526;11.360;2022-08-04T09:23:16;4.45;;;1.40;;
9815;SDS011;4947;44.526;11.360;2022-08-04T09:25:52;4.10;;;1.48;;
9815;SDS011;4947;44.526;11.360;2022-08-04T09:28:26;2.70;;;1.58;;
9815;SDS011;4947;44.526;11.360;2022-08-04T09:30:58;2.05;;;1.63;;
9815;SDS011;4947;44.526;11.360;2022-08-04T09:33:34;4.13;;;1.60;;
9815;SDS011;4947;44.526;11.360;2022-08-04T09:36:09;1.92;;;1.40;;
9815;SDS011;4947;44.526;11.360;2022-08-04T09:38:58;2.10;;;1.50;;
9815;SDS011;4947;44.526;11.360;2022-08-04T09:41:35;2.60;;;1.63;;
9815;SDS011;4947;44.526;11.360;2022-08-04T09:44:17;4.45;;;2.20;;
9815;SDS011;4947;44.526;11.360;2022-08-04T09:46:56;1.70;;;1.48;;
9815;SDS011;4947;44.526;11.360;2022-08-04T09:49:32;1.65;;;1.40;;
9815;SDS011;4947;44.526;11.360;2022-08-04T09:52:05;2.05;;;1.30;;
9815;SDS011;4947;44.526;11.360;2022-08-04T09:54:40;4.85;;;1.50;;
9815;SDS011;4947;44.526;11.360;2022-08-04T09:57:16;4.93;;;1.60;;
9815;SDS011;4947;44.526;11.360;2022-08-04T09:59:56;4.65;;;1.65;;
9815;SDS011;4947;44.526;11.360;2022-08-04T10:02:32;2.53;;;1.83;;
9815;SDS011;4947;44.526;11.360;2022-08-04T10:05:03;2.63;;;1.50;;
9815;SDS011;4947;44.526;11.360;2022-08-04T10:07:41;2.00;;;1.70;;
9815;SDS011;4947;44.526;11.360;2022-08-04T10:10:31;3.85;;;1.73;;
9815;SDS011;4947;44.526;11.360;2022-08-04T10:13:06;1.55;;;1.45;;
9815;SDS011;4947;44.526;11.360;2022-08-04T10:15:47;5.45;;;1.75;;
9815;SDS011;4947;44.526;11.360;2022-08-04T10:18:37;2.90;;;1.45;;
9815;SDS011;4947;44.526;11.360;2022-08-04T10:21:14;1.70;;;1.60;;
9815;SDS011;4947;44.526;11.360;2022-08-04T10:23:51;1.50;;;1.40;;
9815;SDS011;4947;44.526;11.360;2022-08-04T10:26:35;2.85;;;1.52;;
9815;SDS011;4947;44.526;11.360;2022-08-04T10:29:12;1.67;;;1.45;;
9815;SDS011;4947;44.526;11.360;2022-08-04T10:31:45;5.55;;;1.90;;
9815;SDS011;4947;44.526;11.360;2022-08-04T10:34:20;2.40;;;1.77;;
9815;SDS011;4947;44.526;11.360;2022-08-04T10:36:52;2.20;;;1.33;;
9815;SDS011;4947;44.526;11.360;2022-08-04T10:39:28;2.22;;;1.90;;
9815;SDS011;4947;44.526;11.360;2022-08-04T10:42:02;1.67;;;1.38;;
9815;SDS011;4947;44.526;11.360;2022-08-04T10:44:39;3.78;;;2.20;;
9815;SDS011;4947;44.526;11.360;2022-08-04T10:47:21;4.95;;;1.63;;
9815;SDS011;4947;44.526;11.360;2022-08-04T10:49:58;3.45;;;2.08;;
9815;SDS011;4947;44.526;11.360;2022-08-04T10:52:30;2.45;;;1.63;;
9815;SDS011;4947;44.526;11.360;2022-08-04T10:55:02;2.13;;;1.65;;
9815;SDS011;4947;44.526;11.360;2022-08-04T10:57:38;3.55;;;1.50;;
9815;SDS011;4947;44.526;11.360;2022-08-04T11:00:09;2.88;;;1.63;;
9815;SDS011;4947;44.526;11.360;2022-08-04T11:02:42;1.95;;;1.67;;
9815;SDS011;4947;44.526;11.360;2022-08-04T11:05:17;5.57;;;2.08;;
9815;SDS011;4947;44.526;11.360;2022-08-04T11:07:51;1.70;;;1.50;;
9815;SDS011;4947;44.526;11.360;2022-08-04T11:10:23;4.55;;;1.92;;
9815;SDS011;4947;44.526;11.360;2022-08-04T11:12:55;6.43;;;1.70;;
9815;SDS011;4947;44.526;11.360;2022-08-04T11:15:27;1.80;;;1.70;;
9815;SDS011;4947;44.526;11.360;2022-08-04T11:18:04;4.75;;;1.63;;
9815;SDS011;4947;44.526;11.360;2022-08-04T11:20:36;2.88;;;1.42;;
9815;SDS011;4947;44.526;11.360;2022-08-04T11:23:10;2.00;;;1.80;;
9815;SDS011;4947;44.526;11.360;2022-08-04T11:25:44;2.63;;;1.40;;
9815;SDS011;4947;44.526;11.360;2022-08-04T11:28:22;2.75;;;1.65;;
9815;SDS011;4947;44.526;11.360;2022-08-04T11:31:02;8.07;;;1.70;;
9815;SDS011;4947;44.526;11.360;2022-08-04T11:33:36;1.75;;;1.38;;
9815;SDS011;4947;44.526;11.360;2022-08-04T11:36:13;2.05;;;1.67;;
9815;SDS011;4947;44.526;11.360;2022-08-04T11:38:46;1.90;;;1.50;;
9815;SDS011;4947;44.526;11.360;2022-08-04T11:41:21;2.55;;;1.40;;
9815;SDS011;4947;44.526;11.360;2022-08-04T11:43:59;4.30;;;1.60;;
9815;SDS011;4947;44.526;11.360;2022-08-04T11:46:29;2.58;;;1.80;;
9815;SDS011;4947;44.526;11.360;2022-08-04T11:49:04;3.28;;;1.90;;
9815;SDS011;4947;44.526;11.360;2022-08-04T11:51:34;4.10;;;1.70;;
9815;SDS011;4947;44.526;11.360;2022-08-04T11:54:02;3.88;;;1.70;;
9815;SDS011;4947;44.526;11.360;2022-08-04T11:56:30;2.78;;;1.80;;
9815;SDS011;4947;44.526;11.360;2022-08-04T11:58:58;1.50;;;1.40;;
9815;SDS011;4947;44.526;11.360;2022-08-04T12:01:27;2.88;;;1.50;;
9815;SDS011;4947;44.526;11.360;2022-08-04T12:04:06;6.80;;;1.80;;
9815;SDS011;4947;44.526;11.360;2022-08-04T12:06:41;4.13;;;1.27;;
9815;SDS011;4947;44.526;11.360;2022-08-04T12:09:17;1.80;;;1.70;;
9815;SDS011;4947;44.526;11.360;2022-08-04T12:11:58;1.75;;;1.65;;
9815;SDS011;4947;44.526;11.360;2022-08-04T12:14:37;3.65;;;1.70;;
9815;SDS011;4947;44.526;11.360;2022-08-04T12:17:10;1.42;;;1.33;;
9815;SDS011;4947;44.526;11.360;2022-08-04T12:22:33;1.40;;;1.30;;
9815;SDS011;4947;44.526;11.360;2022-08-04T12:25:04;1.60;;;1.50;;
9815;SDS011;4947;44.526;11.360;2022-08-04T12:27:44;3.60;;;1.30;;
9815;SDS011;4947;44.526;11.360;2022-08-04T12:30:15;3.53;;;1.50;;
9815;SDS011;4947;44.526;11.360;2022-08-04T12:32:47;2.25;;;1.65;;
9815;SDS011;4947;44.526;11.360;2022-08-04T12:35:24;3.78;;;1.50;;
9815;SDS011;4947;44.526;11.360;2022-08-04T12:38:01;1.45;;;1.35;;
9815;SDS011;4947;44.526;11.360;2022-08-04T12:40:32;3.25;;;1.30;;
9815;SDS011;4947;44.526;11.360;2022-08-04T12:43:08;3.65;;;1.70;;
9815;SDS011;4947;44.526;11.360;2022-08-04T12:45:41;1.63;;;1.40;;
9815;SDS011;4947;44.526;11.360;2022-08-04T12:48:10;1.73;;;1.63;;
9815;SDS011;4947;44.526;11.360;2022-08-04T12:50:54;3.10;;;1.63;;
9815;SDS011;4947;44.526;11.360;2022-08-04T12:53:29;2.83;;;1.40;;
9815;SDS011;4947;44.526;11.360;2022-08-04T12:56:01;1.67;;;1.58;;
9815;SDS011;4947;44.526;11.360;2022-08-04T12:58:31;3.20;;;1.60;;
9815;SDS011;4947;44.526;11.360;2022-08-04T13:01:04;1.50;;;1.40;;
9815;SDS011;4947;44.526;11.360;2022-08-04T13:03:35;1.50;;;1.40;;
9815;SDS011;4947;44.526;11.360;2022-08-04T13:06:07;2.00;;;1.55;;
9815;SDS011;4947;44.526;11.360;2022-08-04T13:08:38;3.45;;;1.52;;
9815;SDS011;4947;44.526;11.360;2022-08-04T13:11:09;1.88;;;1.50;;
9815;SDS011;4947;44.526;11.360;2022-08-04T13:13:38;3.75;;;1.50;;
9815;SDS011;4947;44.526;11.360;2022-08-04T13:16:07;2.42;;;1.27;;
9815;SDS011;4947;44.526;11.360;2022-08-04T13:18:40;4.30;;;1.55;;
9815;SDS011;4947;44.526;11.360;2022-08-04T13:21:15;2.92;;;1.50;;
9815;SDS011;4947;44.526;11.360;2022-08-04T13:23:44;2.67;;;1.40;;
9815;SDS011;4947;44.526;11.360;2022-08-04T13:26:12;3.80;;;1.67;;
9815;SDS011;4947;44.526;11.360;2022-08-04T13:28:41;2.33;;;1.67;;
9815;SDS011;4947;44.526;11.360;2022-08-04T13:31:14;1.30;;;1.20;;
9815;SDS011;4947;44.526;11.360;2022-08-04T13:33:44;1.65;;;1.55;;
9815;SDS011;4947;44.526;11.360;2022-08-04T13:36:16;3.53;;;1.55;;
9815;SDS011;4947;44.526;11.360;2022-08-04T13:38:45;6.30;;;1.85;;
9815;SDS011;4947;44.526;11.360;2022-08-04T13:41:17;2.70;;;1.48;;
9815;SDS011;4947;44.526;11.360;2022-08-04T13:43:46;2.40;;;1.48;;
9815;SDS011;4947;44.526;11.360;2022-08-04T13:46:16;1.77;;;1.40;;
9815;SDS011;4947;44.526;11.360;2022-08-04T13:48:46;2.28;;;1.92;;
9815;SDS011;4947;44.526;11.360;2022-08-04T13:51:17;2.42;;;1.33;;
9815;SDS011;4947;44.526;11.360;2022-08-04T13:53:55;1.60;;;1.48;;
9815;SDS011;4947;44.526;11.360;2022-08-04T13:56:27;3.15;;;1.50;;
9815;SDS011;4947;44.526;11.360;2022-08-04T13:58:56;2.72;;;1.55;;
9815;SDS011;4947;44.526;11.360;2022-08-04T14:01:29;4.65;;;1.52;;
9815;SDS011;4947;44.526;11.360;2022-08-04T14:04:01;2.35;;;1.42;;
9815;SDS011;4947;44.526;11.360;2022-08-04T14:06:44;2.33;;;1.50;;
9815;SDS011;4947;44.526;11.360;2022-08-04T14:09:17;1.67;;;1.50;;
9815;SDS011;4947;44.526;11.360;2022-08-04T14:11:47;3.35;;;1.42;;
9815;SDS011;4947;44.526;11.360;2022-08-04T14:14:16;2.30;;;1.80;;
9815;SDS011;4947;44.526;11.360;2022-08-04T14:16:55;2.08;;;1.30;;
9815;SDS011;4947;44.526;11.360;2022-08-04T14:19:25;2.22;;;1.58;;
9815;SDS011;4947;44.526;11.360;2022-08-04T14:21:56;2.45;;;1.50;;
9815;SDS011;4947;44.526;11.360;2022-08-04T14:24:29;5.50;;;1.33;;
9815;SDS011;4947;44.526;11.360;2022-08-04T14:26:57;3.63;;;1.50;;
9815;SDS011;4947;44.526;11.360;2022-08-04T14:29:28;4.35;;;1.60;;
9815;SDS011;4947;44.526;11.360;2022-08-04T14:32:03;5.55;;;1.50;;
9815;SDS011;4947;44.526;11.360;2022-08-04T14:34:36;3.20;;;1.30;;
9815;SDS011;4947;44.526;11.360;2022-08-04T14:37:07;3.78;;;1.33;;
9815;SDS011;4947;44.526;11.360;2022-08-04T14:39:39;1.58;;;1.48;;
9815;SDS011;4947;44.526;11.360;2022-08-04T14:42:08;3.45;;;1.42;;
9815;SDS011;4947;44.526;11.360;2022-08-04T14:44:58;1.58;;;1.48;;
9815;SDS011;4947;44.526;11.360;2022-08-04T14:47:39;3.90;;;1.65;;
9815;SDS011;4947;44.526;11.360;2022-08-04T14:50:09;4.88;;;1.73;;
9815;SDS011;4947;44.526;11.360;2022-08-04T14:52:39;5.63;;;1.98;;
9815;SDS011;4947;44.526;11.360;2022-08-04T14:55:13;2.55;;;1.70;;
9815;SDS011;4947;44.526;11.360;2022-08-04T14:57:42;3.95;;;1.48;;
9815;SDS011;4947;44.526;11.360;2022-08-04T15:00:10;2.05;;;1.40;;
9815;SDS011;4947;44.526;11.360;2022-08-04T15:02:38;2.28;;;1.60;;
9815;SDS011;4947;44.526;11.360;2022-08-04T15:05:09;2.25;;;1.50;;
9815;SDS011;4947;44.526;11.360;2022-08-04T15:07:38;1.55;;;1.42;;
9815;SDS011;4947;44.526;11.360;2022-08-04T15:10:06;3.17;;;1.55;;
9815;SDS011;4947;44.526;11.360;2022-08-04T15:12:37;6.18;;;1.65;;
9815;SDS011;4947;44.526;11.360;2022-08-04T15:15:06;4.82;;;1.55;;
9815;SDS011;4947;44.526;11.360;2022-08-04T15:17:35;7.25;;;1.85;;
9815;SDS011;4947;44.526;11.360;2022-08-04T15:20:04;3.05;;;1.45;;
9815;SDS011;4947;44.526;11.360;2022-08-04T15:22:35;5.15;;;1.48;;
9815;SDS011;4947;44.526;11.360;2022-08-04T15:25:06;2.08;;;1.48;;
9815;SDS011;4947;44.526;11.360;2022-08-04T15:27:36;2.45;;;1.30;;
9815;SDS011;4947;44.526;11.360;2022-08-04T15:30:07;3.03;;;1.50;;
9815;SDS011;4947;44.526;11.360;2022-08-04T15:32:38;3.05;;;1.40;;
9815;SDS011;4947;44.526;11.360;2022-08-04T15:35:08;1.98;;;1.40;;
9815;SDS011;4947;44.526;11.360;2022-08-04T15:37:50;2.28;;;1.55;;
9815;SDS011;4947;44.526;11.360;2022-08-04T15:40:42;4.38;;;1.63;;
9815;SDS011;4947;44.526;11.360;2022-08-04T15:43:20;6.03;;;1.52;;
9815;SDS011;4947;44.526;11.360;2022-08-04T15:46:03;4.47;;;1.60;;
9815;SDS011;4947;44.526;11.360;2022-08-04T15:48:31;4.65;;;1.90;;
9815;SDS011;4947;44.526;11.360;2022-08-04T15:50:59;5.03;;;1.70;;
9815;SDS011;4947;44.526;11.360;2022-08-04T15:53:30;6.13;;;1.88;;
9815;SDS011;4947;44.526;11.360;2022-08-04T15:59:11;5.30;;;1.60;;
9815;SDS011;4947;44.526;11.360;2022-08-04T16:01:40;2.70;;;2.05;;
9815;SDS011;4947;44.526;11.360;2022-08-04T16:04:21;9.55;;;1.92;;
9815;SDS011;4947;44.526;11.360;2022-08-04T16:06:50;2.17;;;1.70;;
9815;SDS011;4947;44.526;11.360;2022-08-04T16:09:30;2.42;;;1.70;;
9815;SDS011;4947;44.526;11.360;2022-08-04T16:12:00;5.45;;;1.95;;
9815;SDS011;4947;44.526;11.360;2022-08-04T16:14:32;3.22;;;1.50;;
9815;SDS011;4947;44.526;11.360;2022-08-04T16:17:16;1.65;;;1.35;;
9815;SDS011;4947;44.526;11.360;2022-08-04T16:19:48;1.92;;;1.58;;
9815;SDS011;4947;44.526;11.360;2022-08-04T16:22:30;3.03;;;1.42;;
9815;SDS011;4947;44.526;11.360;2022-08-04T16:25:00;2.92;;;1.48;;
9815;SDS011;4947;44.526;11.360;2022-08-04T16:30:18;2.35;;;1.58;;
9815;SDS011;4947;44.526;11.360;2022-08-04T16:32:46;1.58;;;1.45;;
9815;SDS011;4947;44.526;11.360;2022-08-04T16:35:18;3.03;;;1.50;;
9815;SDS011;4947;44.526;11.360;2022-08-04T16:38:11;4.88;;;1.83;;
9815;SDS011;4947;44.526;11.360;2022-08-04T16:40:40;3.45;;;1.50;;
9815;SDS011;4947;44.526;11.360;2022-08-04T16:43:13;5.07;;;1.50;;
9815;SDS011;4947;44.526;11.360;2022-08-04T16:45:51;4.82;;;1.73;;
9815;SDS011;4947;44.526;11.360;2022-08-04T16:48:21;1.60;;;1.30;;